sensor_id;sensor_type;location;lat;lon;timestamp;pressure;altitude;pressure_sealevel;temperature;humidity
50302;BME280;36550;50.472;19.744;2024-02-23T00:02:40;96144.45;;;7.61;77.50
50302;BME280;36550;50.472;19.744;2024-02-23T00:05:24;96138.66;;;7.65;77.75
50302;BME280;36550;50.472;19.744;2024-02-23T00:08:08;96133.23;;;7.69;77.83
50302;BME280;36550;50.472;19.744;2024-02-23T00:10:55;96133.75;;;7.73;78.11
50302;BME280;36550;50.472;19.744;2024-02-23T00:13:39;96138.08;;;7.77;78.00
50302;BME280;36550;50.472;19.744;2024-02-23T00:16:23;96136.40;;;7.82;78.24
50302;BME280;36550;50.472;19.744;2024-02-23T00:19:08;96131.39;;;7.86;78.42
50302;BME280;36550;50.472;19.744;2024-02-23T00:21:55;96119.48;;;7.91;78.45
50302;BME280;36550;50.472;19.744;2024-02-23T00:24:40;96115.23;;;7.96;78.45
50302;BME280;36550;50.472;19.744;2024-02-23T00:27:24;96114.55;;;8.00;78.78
50302;BME280;36550;50.472;19.744;2024-02-23T00:30:09;96111.05;;;8.04;78.93
50302;BME280;36550;50.472;19.744;2024-02-23T00:32:52;96113.70;;;8.08;78.90
50302;BME280;36550;50.472;19.744;2024-02-23T00:35:37;96119.02;;;8.12;78.86
50302;BME280;36550;50.472;19.744;2024-02-23T00:38:21;96119.85;;;8.15;78.66
50302;BME280;36550;50.472;19.744;2024-02-23T00:41:05;96119.80;;;8.21;78.69
50302;BME280;36550;50.472;19.744;2024-02-23T00:43:50;96117.27;;;8.24;78.70
50302;BME280;36550;50.472;19.744;2024-02-23T00:46:34;96117.77;;;8.25;78.60
50302;BME280;36550;50.472;19.744;2024-02-23T00:49:18;96125.05;;;8.27;78.53
50302;BME280;36550;50.472;19.744;2024-02-23T00:52:03;96130.63;;;8.31;78.52
50302;BME280;36550;50.472;19.744;2024-02-23T00:54:47;96128.45;;;8.31;78.36
50302;BME280;36550;50.472;19.744;2024-02-23T00:57:31;96125.04;;;8.31;78.69
50302;BME280;36550;50.472;19.744;2024-02-23T01:00:16;96119.71;;;8.31;78.85
50302;BME280;36550;50.472;19.744;2024-02-23T01:03:01;96117.40;;;8.32;78.81
50302;BME280;36550;50.472;19.744;2024-02-23T01:05:45;96113.07;;;8.33;78.87
50302;BME280;36550;50.472;19.744;2024-02-23T01:08:29;96111.23;;;8.30;78.87
50302;BME280;36550;50.472;19.744;2024-02-23T01:11:13;96110.15;;;8.28;78.72
50302;BME280;36550;50.472;19.744;2024-02-23T01:13:58;96106.80;;;8.27;78.79
50302;BME280;36550;50.472;19.744;2024-02-23T01:16:42;96107.96;;;8.26;78.80
50302;BME280;36550;50.472;19.744;2024-02-23T01:19:26;96106.30;;;8.25;78.95
50302;BME280;36550;50.472;19.744;2024-02-23T01:22:10;96105.77;;;8.22;78.99
50302;BME280;36550;50.472;19.744;2024-02-23T01:24:54;96101.65;;;8.19;79.11
50302;BME280;36550;50.472;19.744;2024-02-23T01:27:39;96097.95;;;8.19;79.21
50302;BME280;36550;50.472;19.744;2024-02-23T01:30:23;96105.38;;;8.18;79.13
50302;BME280;36550;50.472;19.744;2024-02-23T01:33:08;96104.34;;;8.17;79.23
50302;BME280;36550;50.472;19.744;2024-02-23T01:35:52;96105.05;;;8.16;79.17
50302;BME280;36550;50.472;19.744;2024-02-23T01:38:36;96107.31;;;8.14;79.20
50302;BME280;36550;50.472;19.744;2024-02-23T01:41:20;96108.88;;;8.13;79.37
50302;BME280;36550;50.472;19.744;2024-02-23T01:44:04;96112.70;;;8.11;79.43
50302;BME280;36550;50.472;19.744;2024-02-23T01:46:49;96117.41;;;8.09;79.43
50302;BME280;36550;50.472;19.744;2024-02-23T01:49:34;96120.80;;;8.07;79.50
50302;BME280;36550;50.472;19.744;2024-02-23T01:52:20;96121.70;;;8.05;79.56
50302;BME280;36550;50.472;19.744;2024-02-23T01:55:05;96121.55;;;8.05;79.55
50302;BME280;36550;50.472;19.744;2024-02-23T01:57:50;96124.46;;;8.05;79.58
50302;BME280;36550;50.472;19.744;2024-02-23T02:00:35;96124.68;;;8.04;79.66
50302;BME280;36550;50.472;19.744;2024-02-23T02:03:20;96118.98;;;8.02;79.67
50302;BME280;36550;50.472;19.744;2024-02-23T02:06:09;96117.73;;;8.01;79.76
50302;BME280;36550;50.472;19.744;2024-02-23T02:08:53;96118.05;;;8.00;79.84
50302;BME280;36550;50.472;19.744;2024-02-23T02:11:48;96119.41;;;7.98;79.91
50302;BME280;36550;50.472;19.744;2024-02-23T02:14:32;96113.24;;;7.96;79.85
50302;BME280;36550;50.472;19.744;2024-02-23T02:17:17;96107.30;;;7.95;79.97
50302;BME280;36550;50.472;19.744;2024-02-23T02:20:02;96104.68;;;7.95;79.93
50302;BME280;36550;50.472;19.744;2024-02-23T02:22:48;96106.41;;;7.95;79.98
50302;BME280;36550;50.472;19.744;2024-02-23T02:25:32;96103.70;;;7.94;80.05
50302;BME280;36550;50.472;19.744;2024-02-23T02:28:16;96103.77;;;7.92;80.01
50302;BME280;36550;50.472;19.744;2024-02-23T02:31:01;96103.59;;;7.94;79.94
50302;BME280;36550;50.472;19.744;2024-02-23T02:33:45;96110.22;;;7.97;79.96
50302;BME280;36550;50.472;19.744;2024-02-23T02:36:29;96115.27;;;8.00;79.98
50302;BME280;36550;50.472;19.744;2024-02-23T02:39:13;96112.66;;;8.00;79.92
50302;BME280;36550;50.472;19.744;2024-02-23T02:41:57;96111.63;;;7.98;79.85
50302;BME280;36550;50.472;19.744;2024-02-23T02:44:41;96110.12;;;7.95;79.92
50302;BME280;36550;50.472;19.744;2024-02-23T02:47:25;96108.55;;;7.94;79.83
50302;BME280;36550;50.472;19.744;2024-02-23T02:50:09;96113.52;;;7.93;79.86
50302;BME280;36550;50.472;19.744;2024-02-23T02:52:53;96112.40;;;7.95;79.88
50302;BME280;36550;50.472;19.744;2024-02-23T02:55:42;96116.13;;;7.94;79.90
50302;BME280;36550;50.472;19.744;2024-02-23T02:58:26;96116.85;;;7.95;79.87
50302;BME280;36550;50.472;19.744;2024-02-23T03:01:10;96118.79;;;7.96;79.93
50302;BME280;36550;50.472;19.744;2024-02-23T03:03:54;96122.23;;;7.96;79.83
50302;BME280;36550;50.472;19.744;2024-02-23T03:06:38;96123.06;;;7.97;79.72
50302;BME280;36550;50.472;19.744;2024-02-23T03:09:22;96129.29;;;7.98;79.79
50302;BME280;36550;50.472;19.744;2024-02-23T03:12:07;96130.02;;;7.98;79.93
50302;BME280;36550;50.472;19.744;2024-02-23T03:14:51;96129.50;;;7.99;79.91
50302;BME280;36550;50.472;19.744;2024-02-23T03:17:36;96131.16;;;8.00;79.86
50302;BME280;36550;50.472;19.744;2024-02-23T03:20:20;96133.41;;;8.02;79.98
50302;BME280;36550;50.472;19.744;2024-02-23T03:23:04;96139.15;;;8.03;79.93
50302;BME280;36550;50.472;19.744;2024-02-23T03:25:48;96134.24;;;8.03;79.94
50302;BME280;36550;50.472;19.744;2024-02-23T03:41:58;96145.65;;;8.21;79.74
50302;BME280;36550;50.472;19.744;2024-02-23T03:44:42;96144.13;;;8.21;79.71
50302;BME280;36550;50.472;19.744;2024-02-23T03:47:26;96146.27;;;8.20;79.73
50302;BME280;36550;50.472;19.744;2024-02-23T03:50:10;96147.06;;;8.20;79.70
50302;BME280;36550;50.472;19.744;2024-02-23T03:52:54;96151.77;;;8.20;79.69
50302;BME280;36550;50.472;19.744;2024-02-23T03:55:38;96156.84;;;8.19;79.80
50302;BME280;36550;50.472;19.744;2024-02-23T03:58:22;96159.61;;;8.16;79.83
50302;BME280;36550;50.472;19.744;2024-02-23T04:01:06;96165.38;;;8.13;80.05
50302;BME280;36550;50.472;19.744;2024-02-23T04:03:50;96172.48;;;8.11;80.11
50302;BME280;36550;50.472;19.744;2024-02-23T04:06:34;96175.41;;;8.09;80.14
50302;BME280;36550;50.472;19.744;2024-02-23T04:09:18;96175.92;;;8.07;80.28
50302;BME280;36550;50.472;19.744;2024-02-23T04:12:03;96175.45;;;8.05;80.42
50302;BME280;36550;50.472;19.744;2024-02-23T04:14:47;96175.05;;;8.05;80.61
50302;BME280;36550;50.472;19.744;2024-02-23T04:17:31;96177.39;;;8.05;80.75
50302;BME280;36550;50.472;19.744;2024-02-23T04:20:16;96177.34;;;8.02;80.86
50302;BME280;36550;50.472;19.744;2024-02-23T04:23:00;96175.63;;;7.99;81.06
50302;BME280;36550;50.472;19.744;2024-02-23T04:25:44;96183.46;;;7.98;81.20
50302;BME280;36550;50.472;19.744;2024-02-23T04:28:28;96190.52;;;7.98;81.01
50302;BME280;36550;50.472;19.744;2024-02-23T04:31:14;96186.70;;;8.00;81.09
50302;BME280;36550;50.472;19.744;2024-02-23T04:33:58;96191.40;;;8.01;81.26
50302;BME280;36550;50.472;19.744;2024-02-23T04:36:43;96189.10;;;8.00;81.18
50302;BME280;36550;50.472;19.744;2024-02-23T04:39:27;96192.13;;;8.00;81.25
50302;BME280;36550;50.472;19.744;2024-02-23T04:42:11;96193.59;;;7.99;81.27
50302;BME280;36550;50.472;19.744;2024-02-23T04:44:55;96192.23;;;8.00;81.31
50302;BME280;36550;50.472;19.744;2024-02-23T04:47:39;96206.92;;;7.99;81.29
50302;BME280;36550;50.472;19.744;2024-02-23T04:50:24;96208.54;;;7.99;81.29
50302;BME280;36550;50.472;19.744;2024-02-23T04:53:08;96205.35;;;7.99;81.43
50302;BME280;36550;50.472;19.744;2024-02-23T04:55:52;96205.09;;;8.02;81.23
50302;BME280;36550;50.472;19.744;2024-02-23T04:58:36;96209.52;;;8.02;81.41
50302;BME280;36550;50.472;19.744;2024-02-23T05:01:21;96214.77;;;8.01;81.53
50302;BME280;36550;50.472;19.744;2024-02-23T05:04:05;96213.77;;;8.00;81.41
50302;BME280;36550;50.472;19.744;2024-02-23T05:06:50;96211.88;;;8.00;81.50
50302;BME280;36550;50.472;19.744;2024-02-23T05:09:34;96220.35;;;8.00;81.57
50302;BME280;36550;50.472;19.744;2024-02-23T05:12:18;96227.03;;;7.99;81.63
50302;BME280;36550;50.472;19.744;2024-02-23T05:15:03;96227.52;;;7.99;81.69
50302;BME280;36550;50.472;19.744;2024-02-23T05:17:47;96228.02;;;7.98;81.68
50302;BME280;36550;50.472;19.744;2024-02-23T05:20:31;96225.25;;;7.99;81.81
50302;BME280;36550;50.472;19.744;2024-02-23T05:23:15;96225.89;;;7.99;81.77
50302;BME280;36550;50.472;19.744;2024-02-23T05:26:00;96237.69;;;7.99;81.85
50302;BME280;36550;50.472;19.744;2024-02-23T05:28:44;96243.28;;;7.98;81.99
50302;BME280;36550;50.472;19.744;2024-02-23T05:31:47;96246.56;;;7.96;81.96
50302;BME280;36550;50.472;19.744;2024-02-23T05:34:32;96261.39;;;7.95;82.10
50302;BME280;36550;50.472;19.744;2024-02-23T05:37:16;96263.80;;;7.94;82.15
50302;BME280;36550;50.472;19.744;2024-02-23T05:40:00;96266.58;;;7.92;82.11
50302;BME280;36550;50.472;19.744;2024-02-23T05:42:47;96269.08;;;7.90;82.21
50302;BME280;36550;50.472;19.744;2024-02-23T05:45:32;96274.27;;;7.90;82.27
50302;BME280;36550;50.472;19.744;2024-02-23T05:48:16;96278.64;;;7.89;82.46
50302;BME280;36550;50.472;19.744;2024-02-23T05:51:03;96279.78;;;7.90;82.47
50302;BME280;36550;50.472;19.744;2024-02-23T05:53:47;96283.29;;;7.91;82.42
50302;BME280;36550;50.472;19.744;2024-02-23T05:56:30;96285.38;;;7.92;82.62
50302;BME280;36550;50.472;19.744;2024-02-23T05:59:15;96282.88;;;7.94;82.61
50302;BME280;36550;50.472;19.744;2024-02-23T06:01:59;96284.95;;;7.96;82.55
50302;BME280;36550;50.472;19.744;2024-02-23T06:04:43;96294.17;;;7.99;82.61
50302;BME280;36550;50.472;19.744;2024-02-23T06:07:27;96297.03;;;8.02;82.61
50302;BME280;36550;50.472;19.744;2024-02-23T06:10:13;96301.33;;;8.06;82.61
50302;BME280;36550;50.472;19.744;2024-02-23T06:12:57;96310.42;;;8.11;82.71
50302;BME280;36550;50.472;19.744;2024-02-23T06:15:41;96313.20;;;8.14;82.84
50302;BME280;36550;50.472;19.744;2024-02-23T06:18:26;96312.48;;;8.14;82.88
50302;BME280;36550;50.472;19.744;2024-02-23T06:21:14;96317.17;;;8.15;82.94
50302;BME280;36550;50.472;19.744;2024-02-23T06:23:59;96323.80;;;8.17;83.00
50302;BME280;36550;50.472;19.744;2024-02-23T06:26:43;96326.16;;;8.20;82.91
50302;BME280;36550;50.472;19.744;2024-02-23T06:29:27;96328.92;;;8.23;83.00
50302;BME280;36550;50.472;19.744;2024-02-23T06:32:11;96330.61;;;8.21;83.04
50302;BME280;36550;50.472;19.744;2024-02-23T06:34:56;96331.70;;;8.19;83.12
50302;BME280;36550;50.472;19.744;2024-02-23T06:37:40;96337.39;;;8.18;83.28
50302;BME280;36550;50.472;19.744;2024-02-23T06:40:24;96342.41;;;8.18;83.31
50302;BME280;36550;50.472;19.744;2024-02-23T06:43:08;96349.93;;;8.16;83.30
50302;BME280;36550;50.472;19.744;2024-02-23T06:45:52;96353.39;;;8.14;83.51
50302;BME280;36550;50.472;19.744;2024-02-23T06:48:37;96353.75;;;8.12;83.64
50302;BME280;36550;50.472;19.744;2024-02-23T06:51:21;96351.35;;;8.12;83.60
50302;BME280;36550;50.472;19.744;2024-02-23T06:54:05;96356.77;;;8.13;83.70
50302;BME280;36550;50.472;19.744;2024-02-23T06:56:49;96355.53;;;8.14;83.76
50302;BME280;36550;50.472;19.744;2024-02-23T06:59:33;96358.56;;;8.15;83.91
50302;BME280;36550;50.472;19.744;2024-02-23T07:02:17;96363.58;;;8.14;83.94
50302;BME280;36550;50.472;19.744;2024-02-23T07:05:02;96367.02;;;8.13;83.90
50302;BME280;36550;50.472;19.744;2024-02-23T07:07:48;96373.04;;;8.15;84.10
50302;BME280;36550;50.472;19.744;2024-02-23T07:10:32;96380.77;;;8.15;84.03
50302;BME280;36550;50.472;19.744;2024-02-23T07:13:16;96386.05;;;8.16;84.11
50302;BME280;36550;50.472;19.744;2024-02-23T07:16:02;96385.95;;;8.16;84.40
50302;BME280;36550;50.472;19.744;2024-02-23T07:18:47;96391.01;;;8.12;84.45
50302;BME280;36550;50.472;19.744;2024-02-23T07:21:31;96390.01;;;8.12;84.31
50302;BME280;36550;50.472;19.744;2024-02-23T07:24:15;96397.42;;;8.14;84.35
50302;BME280;36550;50.472;19.744;2024-02-23T07:27:00;96403.55;;;8.14;84.39
50302;BME280;36550;50.472;19.744;2024-02-23T07:29:44;96410.66;;;8.15;84.60
50302;BME280;36550;50.472;19.744;2024-02-23T07:32:30;96422.27;;;8.17;84.60
50302;BME280;36550;50.472;19.744;2024-02-23T07:35:14;96422.48;;;8.18;84.71
50302;BME280;36550;50.472;19.744;2024-02-23T07:37:58;96418.91;;;8.17;84.82
50302;BME280;36550;50.472;19.744;2024-02-23T07:40:44;96419.03;;;8.18;84.80
50302;BME280;36550;50.472;19.744;2024-02-23T07:43:28;96422.16;;;8.20;84.90
50302;BME280;36550;50.472;19.744;2024-02-23T07:46:12;96423.48;;;8.21;85.03
50302;BME280;36550;50.472;19.744;2024-02-23T07:48:57;96419.47;;;8.23;85.14
50302;BME280;36550;50.472;19.744;2024-02-23T07:51:41;96428.66;;;8.26;85.42
50302;BME280;36550;50.472;19.744;2024-02-23T07:54:25;96427.27;;;8.29;85.48
50302;BME280;36550;50.472;19.744;2024-02-23T07:57:09;96428.00;;;8.34;85.51
50302;BME280;36550;50.472;19.744;2024-02-23T07:59:53;96432.52;;;8.39;85.49
50302;BME280;36550;50.472;19.744;2024-02-23T08:02:38;96435.21;;;8.45;85.57
50302;BME280;36550;50.472;19.744;2024-02-23T08:05:23;96435.06;;;8.53;85.68
50302;BME280;36550;50.472;19.744;2024-02-23T08:08:07;96431.95;;;8.63;85.74
50302;BME280;36550;50.472;19.744;2024-02-23T08:10:51;96431.42;;;8.72;85.75
50302;BME280;36550;50.472;19.744;2024-02-23T08:13:36;96436.03;;;8.79;85.67
50302;BME280;36550;50.472;19.744;2024-02-23T08:16:20;96436.98;;;8.83;85.75
50302;BME280;36550;50.472;19.744;2024-02-23T08:19:04;96446.86;;;8.86;85.58
50302;BME280;36550;50.472;19.744;2024-02-23T08:21:48;96448.44;;;8.91;85.77
50302;BME280;36550;50.472;19.744;2024-02-23T08:24:33;96448.70;;;8.93;85.74
50302;BME280;36550;50.472;19.744;2024-02-23T08:27:17;96444.67;;;8.94;85.56
50302;BME280;36550;50.472;19.744;2024-02-23T08:30:01;96445.82;;;9.01;85.69
50302;BME280;36550;50.472;19.744;2024-02-23T08:32:45;96450.84;;;9.04;85.68
50302;BME280;36550;50.472;19.744;2024-02-23T08:35:29;96451.79;;;9.02;85.72
50302;BME280;36550;50.472;19.744;2024-02-23T08:38:14;96452.62;;;9.00;85.84
50302;BME280;36550;50.472;19.744;2024-02-23T08:40:58;96460.42;;;9.05;85.89
50302;BME280;36550;50.472;19.744;2024-02-23T08:43:42;96460.78;;;9.12;85.89
50302;BME280;36550;50.472;19.744;2024-02-23T08:46:26;96461.35;;;9.19;85.84
50302;BME280;36550;50.472;19.744;2024-02-23T08:49:11;96457.41;;;9.28;85.94
50302;BME280;36550;50.472;19.744;2024-02-23T08:51:56;96459.61;;;9.35;85.80
50302;BME280;36550;50.472;19.744;2024-02-23T08:54:42;96465.00;;;9.39;85.79
50302;BME280;36550;50.472;19.744;2024-02-23T08:57:27;96468.40;;;9.40;85.76
50302;BME280;36550;50.472;19.744;2024-02-23T09:00:12;96473.36;;;9.43;85.78
50302;BME280;36550;50.472;19.744;2024-02-23T09:02:58;96471.96;;;9.44;85.64
50302;BME280;36550;50.472;19.744;2024-02-23T09:05:42;96468.70;;;9.48;85.60
50302;BME280;36550;50.472;19.744;2024-02-23T09:08:26;96473.35;;;9.50;85.65
50302;BME280;36550;50.472;19.744;2024-02-23T09:11:11;96479.27;;;9.50;85.54
50302;BME280;36550;50.472;19.744;2024-02-23T09:13:57;96476.39;;;9.47;85.66
50302;BME280;36550;50.472;19.744;2024-02-23T09:16:41;96476.62;;;9.39;85.72
50302;BME280;36550;50.472;19.744;2024-02-23T09:19:25;96477.83;;;9.34;85.92
50302;BME280;36550;50.472;19.744;2024-02-23T09:22:09;96472.17;;;9.30;86.20
50302;BME280;36550;50.472;19.744;2024-02-23T09:24:53;96480.20;;;9.29;86.27
50302;BME280;36550;50.472;19.744;2024-02-23T09:27:40;96489.77;;;9.23;86.39
50302;BME280;36550;50.472;19.744;2024-02-23T09:30:26;96492.86;;;9.20;86.72
50302;BME280;36550;50.472;19.744;2024-02-23T09:33:10;96491.77;;;9.17;86.74
50302;BME280;36550;50.472;19.744;2024-02-23T09:35:55;96499.45;;;9.17;86.77
50302;BME280;36550;50.472;19.744;2024-02-23T09:38:39;96502.14;;;9.18;86.88
50302;BME280;36550;50.472;19.744;2024-02-23T09:41:24;96505.59;;;9.17;86.83
50302;BME280;36550;50.472;19.744;2024-02-23T09:44:08;96506.21;;;9.18;86.92
50302;BME280;36550;50.472;19.744;2024-02-23T09:46:53;96511.65;;;9.20;87.02
50302;BME280;36550;50.472;19.744;2024-02-23T09:49:38;96520.24;;;9.21;87.10
50302;BME280;36550;50.472;19.744;2024-02-23T09:52:24;96524.38;;;9.22;86.97
50302;BME280;36550;50.472;19.744;2024-02-23T09:55:08;96524.86;;;9.24;87.05
50302;BME280;36550;50.472;19.744;2024-02-23T09:57:57;96525.11;;;9.22;87.47
50302;BME280;36550;50.472;19.744;2024-02-23T10:00:43;96520.83;;;9.14;87.70
50302;BME280;36550;50.472;19.744;2024-02-23T10:03:28;96531.17;;;9.07;88.10
50302;BME280;36550;50.472;19.744;2024-02-23T10:06:15;96532.95;;;9.01;88.13
50302;BME280;36550;50.472;19.744;2024-02-23T10:08:59;96539.39;;;8.98;88.37
50302;BME280;36550;50.472;19.744;2024-02-23T10:11:43;96545.77;;;8.96;88.61
50302;BME280;36550;50.472;19.744;2024-02-23T10:14:27;96548.16;;;8.93;88.75
50302;BME280;36550;50.472;19.744;2024-02-23T10:17:12;96559.16;;;8.92;88.85
50302;BME280;36550;50.472;19.744;2024-02-23T10:19:56;96562.09;;;8.91;89.09
50302;BME280;36550;50.472;19.744;2024-02-23T10:22:45;96563.23;;;8.93;89.14
50302;BME280;36550;50.472;19.744;2024-02-23T10:25:28;96558.48;;;8.95;89.11
50302;BME280;36550;50.472;19.744;2024-02-23T10:28:13;96556.44;;;8.98;89.16
50302;BME280;36550;50.472;19.744;2024-02-23T10:30:57;96563.98;;;9.00;89.12
50302;BME280;36550;50.472;19.744;2024-02-23T10:33:41;96574.73;;;9.09;88.92
50302;BME280;36550;50.472;19.744;2024-02-23T10:36:27;96576.89;;;9.20;89.03
50302;BME280;36550;50.472;19.744;2024-02-23T10:39:18;96580.23;;;9.31;88.85
50302;BME280;36550;50.472;19.744;2024-02-23T10:42:09;96577.64;;;9.40;88.78
50302;BME280;36550;50.472;19.744;2024-02-23T10:44:53;96571.45;;;9.49;88.55
50302;BME280;36550;50.472;19.744;2024-02-23T10:47:39;96568.93;;;9.58;88.50
50302;BME280;36550;50.472;19.744;2024-02-23T10:50:25;96570.82;;;9.66;88.26
50302;BME280;36550;50.472;19.744;2024-02-23T10:53:10;96565.25;;;9.71;88.07
50302;BME280;36550;50.472;19.744;2024-02-23T10:55:56;96556.48;;;9.82;87.90
50302;BME280;36550;50.472;19.744;2024-02-23T10:58:43;96559.98;;;9.92;87.70
50302;BME280;36550;50.472;19.744;2024-02-23T11:01:27;96559.59;;;10.00;87.54
50302;BME280;36550;50.472;19.744;2024-02-23T11:04:13;96557.58;;;10.09;87.25
50302;BME280;36550;50.472;19.744;2024-02-23T11:06:57;96561.75;;;10.17;87.23
50302;BME280;36550;50.472;19.744;2024-02-23T11:09:42;96561.90;;;10.23;86.83
50302;BME280;36550;50.472;19.744;2024-02-23T11:12:29;96564.57;;;10.22;86.57
50302;BME280;36550;50.472;19.744;2024-02-23T11:15:27;96562.85;;;10.23;86.36
50302;BME280;36550;50.472;19.744;2024-02-23T11:18:43;96564.62;;;10.24;86.45
50302;BME280;36550;50.472;19.744;2024-02-23T11:21:34;96574.85;;;10.20;86.24
50302;BME280;36550;50.472;19.744;2024-02-23T11:24:19;96580.73;;;10.15;86.39
50302;BME280;36550;50.472;19.744;2024-02-23T11:27:04;96586.83;;;10.08;86.29
50302;BME280;36550;50.472;19.744;2024-02-23T11:30:01;96594.77;;;9.99;86.35
50302;BME280;36550;50.472;19.744;2024-02-23T11:32:47;96599.05;;;9.91;86.60
50302;BME280;36550;50.472;19.744;2024-02-23T11:35:32;96607.27;;;9.83;86.53
50302;BME280;36550;50.472;19.744;2024-02-23T11:38:16;96614.55;;;9.71;86.57
50302;BME280;36550;50.472;19.744;2024-02-23T11:41:02;96618.02;;;9.64;86.67
50302;BME280;36550;50.472;19.744;2024-02-23T11:43:47;96618.11;;;9.61;86.80
50302;BME280;36550;50.472;19.744;2024-02-23T11:46:31;96618.39;;;9.59;86.86
50302;BME280;36550;50.472;19.744;2024-02-23T11:49:16;96609.48;;;9.56;87.05
50302;BME280;36550;50.472;19.744;2024-02-23T11:52:00;96614.61;;;9.52;87.11
50302;BME280;36550;50.472;19.744;2024-02-23T11:54:44;96620.32;;;9.49;87.17
50302;BME280;36550;50.472;19.744;2024-02-23T11:57:28;96620.89;;;9.53;87.36
50302;BME280;36550;50.472;19.744;2024-02-23T12:00:13;96619.95;;;9.58;87.44
50302;BME280;36550;50.472;19.744;2024-02-23T12:02:57;96622.16;;;9.62;87.27
50302;BME280;36550;50.472;19.744;2024-02-23T12:05:41;96621.90;;;9.63;87.15
50302;BME280;36550;50.472;19.744;2024-02-23T12:08:27;96621.36;;;9.62;87.20
50302;BME280;36550;50.472;19.744;2024-02-23T12:11:13;96624.00;;;9.59;87.27
50302;BME280;36550;50.472;19.744;2024-02-23T12:13:58;96631.73;;;9.61;87.40
50302;BME280;36550;50.472;19.744;2024-02-23T12:16:42;96637.61;;;9.63;87.40
50302;BME280;36550;50.472;19.744;2024-02-23T12:19:26;96639.23;;;9.64;87.33
50302;BME280;36550;50.472;19.744;2024-02-23T12:22:10;96646.23;;;9.65;87.38
50302;BME280;36550;50.472;19.744;2024-02-23T12:24:58;96649.08;;;9.65;87.13
50302;BME280;36550;50.472;19.744;2024-02-23T12:27:44;96652.27;;;9.61;87.31
50302;BME280;36550;50.472;19.744;2024-02-23T12:30:29;96655.31;;;9.56;87.38
50302;BME280;36550;50.472;19.744;2024-02-23T12:33:15;96662.17;;;9.54;87.36
50302;BME280;36550;50.472;19.744;2024-02-23T12:36:00;96659.14;;;9.54;87.44
50302;BME280;36550;50.472;19.744;2024-02-23T12:38:45;96659.81;;;9.55;87.62
50302;BME280;36550;50.472;19.744;2024-02-23T12:41:29;96663.33;;;9.55;87.61
50302;BME280;36550;50.472;19.744;2024-02-23T12:44:14;96655.10;;;9.54;87.71
50302;BME280;36550;50.472;19.744;2024-02-23T12:46:58;96653.73;;;9.52;87.68
50302;BME280;36550;50.472;19.744;2024-02-23T12:49:42;96640.44;;;9.50;87.84
50302;BME280;36550;50.472;19.744;2024-02-23T12:52:27;96627.80;;;9.47;87.74
50302;BME280;36550;50.472;19.744;2024-02-23T12:55:11;96634.52;;;9.47;87.73
50302;BME280;36550;50.472;19.744;2024-02-23T12:57:55;96647.81;;;9.48;87.80
50302;BME280;36550;50.472;19.744;2024-02-23T13:00:40;96645.41;;;9.51;87.81
50302;BME280;36550;50.472;19.744;2024-02-23T13:03:26;96653.84;;;9.56;88.01
50302;BME280;36550;50.472;19.744;2024-02-23T13:06:10;96664.02;;;9.58;87.81
50302;BME280;36550;50.472;19.744;2024-02-23T13:08:54;96665.84;;;9.63;87.96
50302;BME280;36550;50.472;19.744;2024-02-23T13:11:39;96671.13;;;9.69;87.91
50302;BME280;36550;50.472;19.744;2024-02-23T13:14:23;96674.80;;;9.73;87.77
50302;BME280;36550;50.472;19.744;2024-02-23T13:17:07;96680.94;;;9.73;87.83
50302;BME280;36550;50.472;19.744;2024-02-23T13:19:52;96682.88;;;9.68;87.75
50302;BME280;36550;50.472;19.744;2024-02-23T13:22:35;96678.27;;;9.69;87.79
50302;BME280;36550;50.472;19.744;2024-02-23T13:25:19;96673.80;;;9.72;87.86
50302;BME280;36550;50.472;19.744;2024-02-23T13:28:04;96675.23;;;9.77;87.91
50302;BME280;36550;50.472;19.744;2024-02-23T13:30:48;96672.58;;;9.82;87.91
50302;BME280;36550;50.472;19.744;2024-02-23T13:33:33;96673.72;;;9.84;87.82
50302;BME280;36550;50.472;19.744;2024-02-23T13:36:16;96681.20;;;9.83;87.53
50302;BME280;36550;50.472;19.744;2024-02-23T13:39:00;96674.76;;;9.77;87.50
50302;BME280;36550;50.472;19.744;2024-02-23T13:41:45;96672.34;;;9.72;87.33
50302;BME280;36550;50.472;19.744;2024-02-23T13:44:29;96674.08;;;9.69;87.46
50302;BME280;36550;50.472;19.744;2024-02-23T13:47:13;96680.52;;;9.68;87.66
50302;BME280;36550;50.472;19.744;2024-02-23T13:49:58;96679.36;;;9.69;87.57
50302;BME280;36550;50.472;19.744;2024-02-23T13:52:42;96680.57;;;9.71;87.67
50302;BME280;36550;50.472;19.744;2024-02-23T13:55:26;96687.90;;;9.71;87.69
50302;BME280;36550;50.472;19.744;2024-02-23T13:58:11;96692.41;;;9.68;87.63
50302;BME280;36550;50.472;19.744;2024-02-23T14:00:56;96696.08;;;9.63;87.56
50302;BME280;36550;50.472;19.744;2024-02-23T14:03:39;96700.92;;;9.58;87.46
50302;BME280;36550;50.472;19.744;2024-02-23T14:06:23;96701.72;;;9.53;87.54
50302;BME280;36550;50.472;19.744;2024-02-23T14:09:08;96702.33;;;9.49;87.62
50302;BME280;36550;50.472;19.744;2024-02-23T14:11:53;96702.23;;;9.42;87.53
50302;BME280;36550;50.472;19.744;2024-02-23T14:14:37;96702.58;;;9.37;87.64
50302;BME280;36550;50.472;19.744;2024-02-23T14:17:21;96705.96;;;9.33;87.86
50302;BME280;36550;50.472;19.744;2024-02-23T14:20:07;96706.63;;;9.30;87.82
50302;BME280;36550;50.472;19.744;2024-02-23T14:22:51;96709.46;;;9.28;87.94
50302;BME280;36550;50.472;19.744;2024-02-23T14:25:37;96706.26;;;9.25;88.01
50302;BME280;36550;50.472;19.744;2024-02-23T14:28:21;96703.31;;;9.22;88.03
50302;BME280;36550;50.472;19.744;2024-02-23T14:31:05;96706.51;;;9.22;88.07
50302;BME280;36550;50.472;19.744;2024-02-23T14:33:49;96711.27;;;9.22;88.15
50302;BME280;36550;50.472;19.744;2024-02-23T14:36:34;96712.89;;;9.20;88.16
50302;BME280;36550;50.472;19.744;2024-02-23T14:39:18;96714.61;;;9.18;88.16
50302;BME280;36550;50.472;19.744;2024-02-23T14:42:03;96725.45;;;9.17;88.22
50302;BME280;36550;50.472;19.744;2024-02-23T14:44:47;96728.27;;;9.15;88.34
50302;BME280;36550;50.472;19.744;2024-02-23T14:47:31;96730.45;;;9.13;88.39